Kasur Weather



Kasur's Current Weather

Temprature 36o scattered clouds

scattered clouds

Rain: 0 %

Min Temprature36o
Max Temprature36o
Humidity47
Wind Speed3.6 m/h
Sun Rise05:47:48
Sun Set18:05:31
Current Time: 18-Sep-2019 16:31:49
Lat/Lon: 31.12, 74.45




Kasur's Geo Location



Kasur's Weather Forecast

Time Overall Temp Min Temp Max Temp Humidity Wind Speed Rain
18-Sep-2019 (Wed)
17:00:00 clear sky 35.730 35.730 40.465 15 4.3 m/h 0 %
20:00:00 clear sky 28.690 28.690 32.244 34 3.85 m/h 0 %
23:00:00 clear sky 27.250 27.250 29.615 56 5.09 m/h 0 %
19-Sep-2019 (Thu)
02:00:00 clear sky 28.070 28.070 29.250 59 5.18 m/h 0 %
05:00:00 clear sky 28.250 28.250 28.250 61 5.18 m/h 0 %
08:00:00 clear sky 31.050 31.050 31.050 55 5.35 m/h 0 %
11:00:00 clear sky 37.350 37.350 37.350 36 4.79 m/h 0 %
14:00:00 clear sky 39.850 39.850 39.850 24 3.39 m/h 0 %
17:00:00 scattered clouds 36.850 36.850 36.850 32 6.06 m/h 0 %
20:00:00 clear sky 31.070 31.070 31.070 48 3.77 m/h 0 %
23:00:00 clear sky 29.438 29.438 29.438 56 5 m/h 0 %
20-Sep-2019 (Fri)
02:00:00 clear sky 27.156 27.156 27.156 68 3.55 m/h 0 %
05:00:00 clear sky 25.593 25.593 25.593 76 2.77 m/h 0 %
08:00:00 clear sky 29.550 29.550 29.550 61 3.39 m/h 0 %
11:00:00 clear sky 35.550 35.550 35.550 38 2.54 m/h 0 %
14:00:00 few clouds 38.450 38.450 38.450 27 3.94 m/h 0 %
17:00:00 few clouds 36.650 36.650 36.650 29 4.75 m/h 0 %
20:00:00 clear sky 31.150 31.150 31.150 43 3.31 m/h 0 %
23:00:00 clear sky 28.650 28.650 28.650 56 3.63 m/h 0 %
21-Sep-2019 (Sat)
02:00:00 clear sky 27.050 27.050 27.050 66 2.66 m/h 0 %
05:00:00 light rain 25.794 25.794 25.794 72 1.4 m/h 50 %
08:00:00 clear sky 29.150 29.150 29.150 62 3.37 m/h 0 %
11:00:00 clear sky 36.150 36.150 36.150 35 2.19 m/h 0 %
14:00:00 few clouds 38.750 38.750 38.750 26 4.42 m/h 0 %
17:00:00 few clouds 37.050 37.050 37.050 28 3.87 m/h 0 %
20:00:00 clear sky 31.750 31.750 31.750 38 2.02 m/h 0 %
23:00:00 clear sky 30.235 30.235 30.235 50 4.62 m/h 0 %
22-Sep-2019 (Sun)
02:00:00 clear sky 27.650 27.650 27.650 61 2.86 m/h 0 %
05:00:00 clear sky 26.996 26.996 26.996 63 2.47 m/h 0 %
08:00:00 clear sky 31.392 31.392 31.392 50 3.45 m/h 0 %
11:00:00 clear sky 38.103 38.103 38.103 30 1.52 m/h 0 %
14:00:00 broken clouds 37.950 37.950 37.950 28 3.54 m/h 0 %
17:00:00 broken clouds 37.550 37.550 37.550 28 2.84 m/h 0 %
20:00:00 overcast clouds 33.525 33.525 33.525 38 2.92 m/h 0 %
23:00:00 broken clouds 30.582 30.582 30.582 47 4.25 m/h 0 %
23-Sep-2019 (Mon)
02:00:00 clear sky 28.103 28.103 28.103 57 3.39 m/h 0 %
05:00:00 clear sky 26.977 26.977 26.977 63 2.47 m/h 0 %
08:00:00 clear sky 31.544 31.544 31.544 49 2.83 m/h 0 %
11:00:00 clear sky 38.077 38.077 38.077 31 1.78 m/h 0 %
14:00:00 overcast clouds 38.004 38.004 38.004 31 1.8 m/h 0 %

Famous Cities (61)